sensor_id;sensor_type;location;lat;lon;timestamp;P1;durP1;ratioP1;P2;durP2;ratioP2
69937;SDS011;57248;47.320;15.998;2023-03-14T00:01:17;14.40;;;5.97;;
69937;SDS011;57248;47.320;15.998;2023-03-14T00:03:51;11.32;;;4.68;;
69937;SDS011;57248;47.320;15.998;2023-03-14T00:06:23;12.38;;;5.05;;
69937;SDS011;57248;47.320;15.998;2023-03-14T00:08:55;10.77;;;4.88;;
69937;SDS011;57248;47.320;15.998;2023-03-14T00:11:28;10.70;;;4.70;;
69937;SDS011;57248;47.320;15.998;2023-03-14T00:14:01;12.23;;;4.77;;
69937;SDS011;57248;47.320;15.998;2023-03-14T00:16:26;11.43;;;4.18;;
69937;SDS011;57248;47.320;15.998;2023-03-14T00:18:59;10.10;;;4.33;;
69937;SDS011;57248;47.320;15.998;2023-03-14T00:21:30;10.55;;;4.65;;
69937;SDS011;57248;47.320;15.998;2023-03-14T00:24:02;9.73;;;4.40;;
69937;SDS011;57248;47.320;15.998;2023-03-14T00:26:34;9.25;;;3.90;;
69937;SDS011;57248;47.320;15.998;2023-03-14T00:29:07;11.98;;;4.18;;
69937;SDS011;57248;47.320;15.998;2023-03-14T00:31:45;11.37;;;4.67;;
69937;SDS011;57248;47.320;15.998;2023-03-14T00:34:17;10.23;;;4.40;;
69937;SDS011;57248;47.320;15.998;2023-03-14T00:36:49;9.73;;;4.13;;
69937;SDS011;57248;47.320;15.998;2023-03-14T00:39:21;10.50;;;4.70;;
69937;SDS011;57248;47.320;15.998;2023-03-14T00:41:56;12.73;;;4.38;;
69937;SDS011;57248;47.320;15.998;2023-03-14T00:44:28;10.90;;;4.60;;
69937;SDS011;57248;47.320;15.998;2023-03-14T00:47:00;11.75;;;4.90;;
69937;SDS011;57248;47.320;15.998;2023-03-14T00:49:31;11.32;;;4.53;;
69937;SDS011;57248;47.320;15.998;2023-03-14T00:52:03;10.85;;;4.20;;
69937;SDS011;57248;47.320;15.998;2023-03-14T00:54:35;9.85;;;4.25;;
69937;SDS011;57248;47.320;15.998;2023-03-14T00:57:07;10.83;;;4.17;;
69937;SDS011;57248;47.320;15.998;2023-03-14T00:59:40;9.35;;;3.97;;
69937;SDS011;57248;47.320;15.998;2023-03-14T01:02:12;9.95;;;3.90;;
69937;SDS011;57248;47.320;15.998;2023-03-14T01:04:43;12.02;;;4.43;;
69937;SDS011;57248;47.320;15.998;2023-03-14T01:07:09;10.83;;;4.10;;
69937;SDS011;57248;47.320;15.998;2023-03-14T01:09:41;10.27;;;4.10;;
69937;SDS011;57248;47.320;15.998;2023-03-14T01:12:13;11.13;;;4.72;;
69937;SDS011;57248;47.320;15.998;2023-03-14T01:14:45;11.63;;;4.37;;
69937;SDS011;57248;47.320;15.998;2023-03-14T01:17:17;9.40;;;3.60;;
69937;SDS011;57248;47.320;15.998;2023-03-14T01:19:49;11.20;;;4.20;;
69937;SDS011;57248;47.320;15.998;2023-03-14T01:22:22;9.85;;;3.90;;
69937;SDS011;57248;47.320;15.998;2023-03-14T01:25:09;8.77;;;3.65;;
69937;SDS011;57248;47.320;15.998;2023-03-14T01:27:44;8.23;;;3.40;;
69937;SDS011;57248;47.320;15.998;2023-03-14T01:30:29;10.05;;;3.83;;
69937;SDS011;57248;47.320;15.998;2023-03-14T01:33:01;8.45;;;3.95;;
69937;SDS011;57248;47.320;15.998;2023-03-14T01:35:34;8.48;;;3.97;;
69937;SDS011;57248;47.320;15.998;2023-03-14T01:38:06;9.32;;;3.42;;
69937;SDS011;57248;47.320;15.998;2023-03-14T01:40:41;10.77;;;4.00;;
69937;SDS011;57248;47.320;15.998;2023-03-14T01:43:19;9.50;;;3.60;;
69937;SDS011;57248;47.320;15.998;2023-03-14T01:46:01;8.48;;;3.67;;
69937;SDS011;57248;47.320;15.998;2023-03-14T01:49:22;8.98;;;3.13;;
69937;SDS011;57248;47.320;15.998;2023-03-14T01:52:12;8.70;;;2.47;;
69937;SDS011;57248;47.320;15.998;2023-03-14T01:54:50;7.77;;;2.87;;
69937;SDS011;57248;47.320;15.998;2023-03-14T01:57:44;6.18;;;2.03;;
69937;SDS011;57248;47.320;15.998;2023-03-14T02:00:19;6.65;;;2.40;;
69937;SDS011;57248;47.320;15.998;2023-03-14T02:03:05;9.45;;;2.60;;
69937;SDS011;57248;47.320;15.998;2023-03-14T02:05:41;6.63;;;2.35;;
69937;SDS011;57248;47.320;15.998;2023-03-14T02:08:18;9.73;;;2.50;;
69937;SDS011;57248;47.320;15.998;2023-03-14T02:10:57;6.90;;;2.17;;
69937;SDS011;57248;47.320;15.998;2023-03-14T02:13:51;5.72;;;2.10;;
69937;SDS011;57248;47.320;15.998;2023-03-14T02:16:53;6.95;;;2.25;;
69937;SDS011;57248;47.320;15.998;2023-03-14T02:22:57;5.87;;;2.07;;
69937;SDS011;57248;47.320;15.998;2023-03-14T02:28:27;6.30;;;2.35;;
69937;SDS011;57248;47.320;15.998;2023-03-14T02:31:13;6.63;;;2.30;;
69937;SDS011;57248;47.320;15.998;2023-03-14T02:33:48;7.80;;;2.30;;
69937;SDS011;57248;47.320;15.998;2023-03-14T02:36:21;6.70;;;2.50;;
69937;SDS011;57248;47.320;15.998;2023-03-14T02:38:58;6.82;;;2.47;;
69937;SDS011;57248;47.320;15.998;2023-03-14T02:41:43;9.43;;;3.30;;
69937;SDS011;57248;47.320;15.998;2023-03-14T02:44:11;10.27;;;5.15;;
69937;SDS011;57248;47.320;15.998;2023-03-14T02:46:43;8.10;;;3.55;;
69937;SDS011;57248;47.320;15.998;2023-03-14T02:49:14;8.03;;;3.10;;
69937;SDS011;57248;47.320;15.998;2023-03-14T02:51:41;6.13;;;2.40;;
69937;SDS011;57248;47.320;15.998;2023-03-14T02:54:16;7.13;;;2.58;;
69937;SDS011;57248;47.320;15.998;2023-03-14T02:56:51;7.18;;;2.33;;
69937;SDS011;57248;47.320;15.998;2023-03-14T02:59:23;6.28;;;2.45;;
69937;SDS011;57248;47.320;15.998;2023-03-14T03:01:59;6.07;;;2.13;;
69937;SDS011;57248;47.320;15.998;2023-03-14T03:04:31;7.82;;;2.67;;
69937;SDS011;57248;47.320;15.998;2023-03-14T03:07:02;7.88;;;2.65;;
69937;SDS011;57248;47.320;15.998;2023-03-14T03:09:35;6.85;;;2.42;;
69937;SDS011;57248;47.320;15.998;2023-03-14T03:12:07;7.88;;;2.35;;
69937;SDS011;57248;47.320;15.998;2023-03-14T03:14:39;5.90;;;2.17;;
69937;SDS011;57248;47.320;15.998;2023-03-14T03:17:11;6.95;;;2.35;;
69937;SDS011;57248;47.320;15.998;2023-03-14T03:19:43;7.38;;;2.00;;
69937;SDS011;57248;47.320;15.998;2023-03-14T03:22:16;6.10;;;2.25;;
69937;SDS011;57248;47.320;15.998;2023-03-14T03:24:48;5.80;;;2.13;;
69937;SDS011;57248;47.320;15.998;2023-03-14T03:27:21;6.33;;;2.10;;
69937;SDS011;57248;47.320;15.998;2023-03-14T03:29:53;4.68;;;1.60;;
69937;SDS011;57248;47.320;15.998;2023-03-14T03:32:39;6.32;;;2.10;;
69937;SDS011;57248;47.320;15.998;2023-03-14T03:35:12;6.38;;;2.20;;
69937;SDS011;57248;47.320;15.998;2023-03-14T03:37:45;6.78;;;1.92;;
69937;SDS011;57248;47.320;15.998;2023-03-14T03:40:17;5.70;;;1.77;;
69937;SDS011;57248;47.320;15.998;2023-03-14T03:42:49;6.20;;;2.10;;
69937;SDS011;57248;47.320;15.998;2023-03-14T03:45:21;5.60;;;1.63;;
69937;SDS011;57248;47.320;15.998;2023-03-14T03:47:55;7.03;;;2.25;;
69937;SDS011;57248;47.320;15.998;2023-03-14T03:50:27;5.35;;;2.05;;
69937;SDS011;57248;47.320;15.998;2023-03-14T03:52:52;7.00;;;2.07;;
69937;SDS011;57248;47.320;15.998;2023-03-14T03:55:24;6.68;;;2.53;;
69937;SDS011;57248;47.320;15.998;2023-03-14T03:57:57;5.80;;;2.13;;
69937;SDS011;57248;47.320;15.998;2023-03-14T04:00:29;6.67;;;2.30;;
69937;SDS011;57248;47.320;15.998;2023-03-14T04:03:01;8.75;;;2.67;;
69937;SDS011;57248;47.320;15.998;2023-03-14T04:05:33;7.03;;;2.22;;
69937;SDS011;57248;47.320;15.998;2023-03-14T04:08:08;6.75;;;1.90;;
69937;SDS011;57248;47.320;15.998;2023-03-14T04:10:40;7.88;;;2.00;;
69937;SDS011;57248;47.320;15.998;2023-03-14T04:13:17;6.63;;;1.97;;
69937;SDS011;57248;47.320;15.998;2023-03-14T04:15:51;7.10;;;1.92;;
69937;SDS011;57248;47.320;15.998;2023-03-14T04:18:26;6.30;;;2.03;;
69937;SDS011;57248;47.320;15.998;2023-03-14T04:20:59;5.28;;;1.70;;
69937;SDS011;57248;47.320;15.998;2023-03-14T04:23:36;5.47;;;1.58;;
69937;SDS011;57248;47.320;15.998;2023-03-14T04:26:08;5.67;;;1.70;;
69937;SDS011;57248;47.320;15.998;2023-03-14T04:28:40;4.95;;;1.65;;
69937;SDS011;57248;47.320;15.998;2023-03-14T04:31:21;5.82;;;1.55;;
69937;SDS011;57248;47.320;15.998;2023-03-14T04:33:53;14.57;;;5.57;;
69937;SDS011;57248;47.320;15.998;2023-03-14T04:36:34;9.02;;;3.20;;
69937;SDS011;57248;47.320;15.998;2023-03-14T04:39:11;8.43;;;3.00;;
69937;SDS011;57248;47.320;15.998;2023-03-14T04:42:08;7.63;;;2.42;;
69937;SDS011;57248;47.320;15.998;2023-03-14T04:44:40;8.00;;;2.88;;
69937;SDS011;57248;47.320;15.998;2023-03-14T04:47:13;8.82;;;2.60;;
69937;SDS011;57248;47.320;15.998;2023-03-14T04:49:47;6.97;;;3.03;;
69937;SDS011;57248;47.320;15.998;2023-03-14T04:52:19;7.63;;;2.87;;
69937;SDS011;57248;47.320;15.998;2023-03-14T04:54:53;6.22;;;2.53;;
69937;SDS011;57248;47.320;15.998;2023-03-14T04:57:26;7.60;;;3.22;;
69937;SDS011;57248;47.320;15.998;2023-03-14T04:59:58;7.45;;;2.75;;
69937;SDS011;57248;47.320;15.998;2023-03-14T05:02:51;7.25;;;2.70;;
69937;SDS011;57248;47.320;15.998;2023-03-14T05:05:43;7.40;;;2.90;;
69937;SDS011;57248;47.320;15.998;2023-03-14T05:08:34;7.45;;;2.45;;
69937;SDS011;57248;47.320;15.998;2023-03-14T05:11:16;8.38;;;3.20;;
69937;SDS011;57248;47.320;15.998;2023-03-14T05:14:02;7.90;;;2.63;;
69937;SDS011;57248;47.320;15.998;2023-03-14T05:16:53;10.43;;;3.72;;
69937;SDS011;57248;47.320;15.998;2023-03-14T05:19:39;8.93;;;3.33;;
69937;SDS011;57248;47.320;15.998;2023-03-14T05:22:30;6.63;;;2.45;;
69937;SDS011;57248;47.320;15.998;2023-03-14T05:25:13;6.40;;;1.92;;
69937;SDS011;57248;47.320;15.998;2023-03-14T05:28:03;4.28;;;1.55;;
69937;SDS011;57248;47.320;15.998;2023-03-14T05:31:09;5.43;;;2.05;;
69937;SDS011;57248;47.320;15.998;2023-03-14T05:34:17;7.03;;;2.33;;
69937;SDS011;57248;47.320;15.998;2023-03-14T05:37:01;6.25;;;1.50;;
69937;SDS011;57248;47.320;15.998;2023-03-14T05:39:57;4.22;;;1.20;;
69937;SDS011;57248;47.320;15.998;2023-03-14T05:42:36;7.13;;;1.58;;
69937;SDS011;57248;47.320;15.998;2023-03-14T05:45:34;9.35;;;2.40;;
69937;SDS011;57248;47.320;15.998;2023-03-14T05:48:34;7.90;;;2.40;;
69937;SDS011;57248;47.320;15.998;2023-03-14T05:51:36;6.57;;;1.75;;
69937;SDS011;57248;47.320;15.998;2023-03-14T05:54:27;5.50;;;1.77;;
69937;SDS011;57248;47.320;15.998;2023-03-14T05:57:19;4.78;;;1.50;;
69937;SDS011;57248;47.320;15.998;2023-03-14T06:00:09;5.30;;;1.95;;
69937;SDS011;57248;47.320;15.998;2023-03-14T06:02:54;5.20;;;1.87;;
69937;SDS011;57248;47.320;15.998;2023-03-14T06:05:31;7.63;;;1.85;;
69937;SDS011;57248;47.320;15.998;2023-03-14T06:08:03;6.15;;;1.80;;
69937;SDS011;57248;47.320;15.998;2023-03-14T06:10:35;4.22;;;1.30;;
69937;SDS011;57248;47.320;15.998;2023-03-14T06:13:28;3.78;;;1.20;;
69937;SDS011;57248;47.320;15.998;2023-03-14T06:16:00;7.23;;;1.70;;
69937;SDS011;57248;47.320;15.998;2023-03-14T06:18:32;8.15;;;1.98;;
69937;SDS011;57248;47.320;15.998;2023-03-14T06:21:06;5.72;;;1.65;;
69937;SDS011;57248;47.320;15.998;2023-03-14T06:23:39;4.90;;;1.45;;
69937;SDS011;57248;47.320;15.998;2023-03-14T06:26:11;5.78;;;1.38;;
69937;SDS011;57248;47.320;15.998;2023-03-14T06:28:46;5.47;;;1.53;;
69937;SDS011;57248;47.320;15.998;2023-03-14T06:31:32;5.60;;;1.60;;
69937;SDS011;57248;47.320;15.998;2023-03-14T06:34:06;3.70;;;1.40;;
69937;SDS011;57248;47.320;15.998;2023-03-14T06:36:39;3.88;;;1.30;;
69937;SDS011;57248;47.320;15.998;2023-03-14T06:39:05;5.87;;;1.40;;
69937;SDS011;57248;47.320;15.998;2023-03-14T06:41:41;5.93;;;1.45;;
69937;SDS011;57248;47.320;15.998;2023-03-14T06:44:14;5.00;;;1.20;;
69937;SDS011;57248;47.320;15.998;2023-03-14T06:46:39;6.63;;;1.30;;
69937;SDS011;57248;47.320;15.998;2023-03-14T06:49:11;5.65;;;1.40;;
69937;SDS011;57248;47.320;15.998;2023-03-14T06:51:44;5.88;;;1.55;;
69937;SDS011;57248;47.320;15.998;2023-03-14T06:54:16;4.85;;;1.30;;
69937;SDS011;57248;47.320;15.998;2023-03-14T06:56:48;5.13;;;1.42;;
69937;SDS011;57248;47.320;15.998;2023-03-14T06:59:20;6.13;;;1.40;;
69937;SDS011;57248;47.320;15.998;2023-03-14T07:01:52;5.03;;;1.77;;
69937;SDS011;57248;47.320;15.998;2023-03-14T07:04:24;6.35;;;2.03;;
69937;SDS011;57248;47.320;15.998;2023-03-14T07:06:56;3.70;;;1.23;;
69937;SDS011;57248;47.320;15.998;2023-03-14T07:09:31;5.47;;;1.48;;
69937;SDS011;57248;47.320;15.998;2023-03-14T07:12:06;8.97;;;1.40;;
69937;SDS011;57248;47.320;15.998;2023-03-14T07:14:32;8.23;;;1.73;;
69937;SDS011;57248;47.320;15.998;2023-03-14T07:17:04;3.92;;;1.17;;
69937;SDS011;57248;47.320;15.998;2023-03-14T07:19:36;7.25;;;2.03;;
69937;SDS011;57248;47.320;15.998;2023-03-14T07:22:04;6.75;;;1.52;;
69937;SDS011;57248;47.320;15.998;2023-03-14T07:24:37;7.10;;;2.23;;
69937;SDS011;57248;47.320;15.998;2023-03-14T07:27:02;5.97;;;2.45;;
69937;SDS011;57248;47.320;15.998;2023-03-14T07:29:34;5.75;;;1.95;;
69937;SDS011;57248;47.320;15.998;2023-03-14T07:32:07;7.70;;;2.10;;
69937;SDS011;57248;47.320;15.998;2023-03-14T07:34:47;8.10;;;2.42;;
69937;SDS011;57248;47.320;15.998;2023-03-14T07:37:19;6.38;;;2.38;;
69937;SDS011;57248;47.320;15.998;2023-03-14T07:39:51;4.63;;;2.20;;
69937;SDS011;57248;47.320;15.998;2023-03-14T07:42:26;4.90;;;2.30;;
69937;SDS011;57248;47.320;15.998;2023-03-14T07:45:10;12.00;;;2.87;;
69937;SDS011;57248;47.320;15.998;2023-03-14T07:47:43;6.65;;;2.72;;
69937;SDS011;57248;47.320;15.998;2023-03-14T07:50:15;7.28;;;2.75;;
69937;SDS011;57248;47.320;15.998;2023-03-14T07:52:47;9.52;;;4.50;;
69937;SDS011;57248;47.320;15.998;2023-03-14T07:55:19;8.90;;;2.50;;
69937;SDS011;57248;47.320;15.998;2023-03-14T07:57:51;9.03;;;3.30;;
69937;SDS011;57248;47.320;15.998;2023-03-14T08:00:23;9.10;;;3.08;;
69937;SDS011;57248;47.320;15.998;2023-03-14T08:02:48;9.17;;;3.83;;
69937;SDS011;57248;47.320;15.998;2023-03-14T08:05:20;6.68;;;3.00;;
69937;SDS011;57248;47.320;15.998;2023-03-14T08:07:52;5.80;;;1.88;;
69937;SDS011;57248;47.320;15.998;2023-03-14T08:10:24;5.88;;;1.77;;
69937;SDS011;57248;47.320;15.998;2023-03-14T08:12:57;5.18;;;1.50;;
69937;SDS011;57248;47.320;15.998;2023-03-14T08:15:30;5.27;;;1.70;;
69937;SDS011;57248;47.320;15.998;2023-03-14T08:18:03;6.50;;;1.55;;
69937;SDS011;57248;47.320;15.998;2023-03-14T08:20:36;7.15;;;2.28;;
69937;SDS011;57248;47.320;15.998;2023-03-14T08:23:08;4.88;;;2.13;;
69937;SDS011;57248;47.320;15.998;2023-03-14T08:25:40;5.45;;;2.00;;
69937;SDS011;57248;47.320;15.998;2023-03-14T08:28:12;5.63;;;2.13;;
69937;SDS011;57248;47.320;15.998;2023-03-14T08:30:50;4.97;;;1.80;;
69937;SDS011;57248;47.320;15.998;2023-03-14T08:33:23;5.57;;;2.50;;
69937;SDS011;57248;47.320;15.998;2023-03-14T08:35:56;5.57;;;2.53;;
69937;SDS011;57248;47.320;15.998;2023-03-14T08:38:31;4.82;;;3.55;;
69937;SDS011;57248;47.320;15.998;2023-03-14T08:41:03;4.60;;;2.60;;
69937;SDS011;57248;47.320;15.998;2023-03-14T08:43:36;10.13;;;5.38;;
69937;SDS011;57248;47.320;15.998;2023-03-14T08:46:08;8.20;;;3.55;;
69937;SDS011;57248;47.320;15.998;2023-03-14T08:48:41;4.95;;;1.80;;
69937;SDS011;57248;47.320;15.998;2023-03-14T08:51:11;4.30;;;1.40;;
69937;SDS011;57248;47.320;15.998;2023-03-14T08:53:46;5.15;;;1.40;;
69937;SDS011;57248;47.320;15.998;2023-03-14T08:56:18;4.40;;;1.05;;
69937;SDS011;57248;47.320;15.998;2023-03-14T08:58:43;5.20;;;1.63;;
69937;SDS011;57248;47.320;15.998;2023-03-14T09:01:15;4.85;;;1.38;;
69937;SDS011;57248;47.320;15.998;2023-03-14T09:03:48;13.48;;;1.67;;
69937;SDS011;57248;47.320;15.998;2023-03-14T09:06:20;5.03;;;1.90;;
69937;SDS011;57248;47.320;15.998;2023-03-14T09:08:52;6.35;;;1.30;;
69937;SDS011;57248;47.320;15.998;2023-03-14T09:11:24;4.72;;;1.80;;
69937;SDS011;57248;47.320;15.998;2023-03-14T09:13:56;6.93;;;4.55;;
69937;SDS011;57248;47.320;15.998;2023-03-14T09:16:21;5.80;;;1.80;;
69937;SDS011;57248;47.320;15.998;2023-03-14T09:18:54;4.47;;;1.30;;
69937;SDS011;57248;47.320;15.998;2023-03-14T09:21:26;5.85;;;1.27;;
69937;SDS011;57248;47.320;15.998;2023-03-14T09:23:59;4.80;;;1.30;;
69937;SDS011;57248;47.320;15.998;2023-03-14T09:26:31;2.90;;;0.90;;
69937;SDS011;57248;47.320;15.998;2023-03-14T09:29:04;5.53;;;1.17;;
69937;SDS011;57248;47.320;15.998;2023-03-14T09:31:36;4.45;;;0.98;;
69937;SDS011;57248;47.320;15.998;2023-03-14T09:34:15;4.70;;;1.17;;
69937;SDS011;57248;47.320;15.998;2023-03-14T09:36:47;4.70;;;1.20;;
69937;SDS011;57248;47.320;15.998;2023-03-14T09:39:19;3.70;;;0.70;;
69937;SDS011;57248;47.320;15.998;2023-03-14T09:41:51;3.88;;;0.98;;
69937;SDS011;57248;47.320;15.998;2023-03-14T09:44:30;3.65;;;1.45;;
69937;SDS011;57248;47.320;15.998;2023-03-14T09:47:06;4.80;;;2.10;;
69937;SDS011;57248;47.320;15.998;2023-03-14T09:49:42;4.50;;;3.03;;
69937;SDS011;57248;47.320;15.998;2023-03-14T09:52:15;4.50;;;3.43;;
69937;SDS011;57248;47.320;15.998;2023-03-14T09:54:53;4.05;;;2.20;;
69937;SDS011;57248;47.320;15.998;2023-03-14T09:57:28;4.75;;;2.13;;
69937;SDS011;57248;47.320;15.998;2023-03-14T10:00:05;4.75;;;2.00;;
69937;SDS011;57248;47.320;15.998;2023-03-14T10:02:47;2.65;;;1.00;;
69937;SDS011;57248;47.320;15.998;2023-03-14T10:05:24;4.77;;;1.10;;
69937;SDS011;57248;47.320;15.998;2023-03-14T10:07:59;3.78;;;1.00;;
69937;SDS011;57248;47.320;15.998;2023-03-14T10:10:32;4.45;;;1.00;;
69937;SDS011;57248;47.320;15.998;2023-03-14T10:15:54;3.80;;;0.98;;
69937;SDS011;57248;47.320;15.998;2023-03-14T10:18:32;3.50;;;0.80;;
69937;SDS011;57248;47.320;15.998;2023-03-14T10:26:53;3.75;;;0.60;;
69937;SDS011;57248;47.320;15.998;2023-03-14T10:29:26;3.08;;;0.63;;
69937;SDS011;57248;47.320;15.998;2023-03-14T10:32:06;4.20;;;0.50;;
69937;SDS011;57248;47.320;15.998;2023-03-14T10:35:04;3.53;;;0.32;;
69937;SDS011;57248;47.320;15.998;2023-03-14T10:37:36;3.08;;;0.40;;
69937;SDS011;57248;47.320;15.998;2023-03-14T10:40:28;4.05;;;0.43;;
69937;SDS011;57248;47.320;15.998;2023-03-14T10:43:03;3.22;;;0.47;;
69937;SDS011;57248;47.320;15.998;2023-03-14T10:45:41;5.47;;;0.50;;
69937;SDS011;57248;47.320;15.998;2023-03-14T10:48:20;3.35;;;0.43;;
69937;SDS011;57248;47.320;15.998;2023-03-14T10:56:43;2.80;;;0.85;;
69937;SDS011;57248;47.320;15.998;2023-03-14T10:59:15;3.00;;;0.63;;
69937;SDS011;57248;47.320;15.998;2023-03-14T11:07:50;4.53;;;0.32;;
69937;SDS011;57248;47.320;15.998;2023-03-14T11:10:34;4.65;;;0.60;;
69937;SDS011;57248;47.320;15.998;2023-03-14T11:21:56;4.28;;;0.30;;
69937;SDS011;57248;47.320;15.998;2023-03-14T11:24:39;2.60;;;0.22;;
69937;SDS011;57248;47.320;15.998;2023-03-14T11:27:22;1.90;;;0.20;;
69937;SDS011;57248;47.320;15.998;2023-03-14T11:30:05;3.03;;;0.52;;
69937;SDS011;57248;47.320;15.998;2023-03-14T11:38:47;4.47;;;1.08;;
69937;SDS011;57248;47.320;15.998;2023-03-14T11:41:23;6.23;;;3.70;;
69937;SDS011;57248;47.320;15.998;2023-03-14T11:44:01;2.60;;;0.75;;
69937;SDS011;57248;47.320;15.998;2023-03-14T11:46:52;6.50;;;1.77;;
69937;SDS011;57248;47.320;15.998;2023-03-14T11:52:49;1.55;;;0.30;;
69937;SDS011;57248;47.320;15.998;2023-03-14T11:58:01;1.52;;;0.20;;
69937;SDS011;57248;47.320;15.998;2023-03-14T12:00:40;3.35;;;0.52;;
69937;SDS011;57248;47.320;15.998;2023-03-14T12:06:09;1.73;;;0.20;;
69937;SDS011;57248;47.320;15.998;2023-03-14T12:08:54;1.50;;;0.20;;
69937;SDS011;57248;47.320;15.998;2023-03-14T12:14:34;2.05;;;0.50;;
69937;SDS011;57248;47.320;15.998;2023-03-14T12:20:17;4.25;;;0.50;;
69937;SDS011;57248;47.320;15.998;2023-03-14T12:23:01;2.93;;;1.00;;
69937;SDS011;57248;47.320;15.998;2023-03-14T12:25:36;4.22;;;0.40;;
69937;SDS011;57248;47.320;15.998;2023-03-14T12:28:18;2.60;;;0.38;;
69937;SDS011;57248;47.320;15.998;2023-03-14T12:39:29;1.98;;;0.28;;
69937;SDS011;57248;47.320;15.998;2023-03-14T12:42:04;1.90;;;0.30;;
69937;SDS011;57248;47.320;15.998;2023-03-14T12:45:27;2.20;;;0.30;;
69937;SDS011;57248;47.320;15.998;2023-03-14T12:48:21;2.00;;;0.22;;
69937;SDS011;57248;47.320;15.998;2023-03-14T12:50:55;1.93;;;0.30;;
69937;SDS011;57248;47.320;15.998;2023-03-14T12:56:56;1.42;;;0.20;;
69937;SDS011;57248;47.320;15.998;2023-03-14T12:59:47;2.53;;;0.30;;
69937;SDS011;57248;47.320;15.998;2023-03-14T13:02:27;2.70;;;0.22;;
69937;SDS011;57248;47.320;15.998;2023-03-14T13:05:02;2.40;;;0.10;;
69937;SDS011;57248;47.320;15.998;2023-03-14T13:08:02;0.80;;;0.20;;
69937;SDS011;57248;47.320;15.998;2023-03-14T13:10:41;1.45;;;0.13;;
69937;SDS011;57248;47.320;15.998;2023-03-14T13:13:19;1.27;;;0.10;;
69937;SDS011;57248;47.320;15.998;2023-03-14T13:15:55;1.48;;;0.17;;
69937;SDS011;57248;47.320;15.998;2023-03-14T13:18:39;0.73;;;0.10;;
69937;SDS011;57248;47.320;15.998;2023-03-14T13:21:24;1.33;;;0.32;;
69937;SDS011;57248;47.320;15.998;2023-03-14T13:23:59;1.13;;;0.15;;
69937;SDS011;57248;47.320;15.998;2023-03-14T13:26:35;2.25;;;0.10;;
69937;SDS011;57248;47.320;15.998;2023-03-14T13:29:14;1.85;;;0.20;;
69937;SDS011;57248;47.320;15.998;2023-03-14T13:31:49;1.33;;;0.13;;
69937;SDS011;57248;47.320;15.998;2023-03-14T13:34:33;2.90;;;0.10;;
69937;SDS011;57248;47.320;15.998;2023-03-14T13:37:13;1.67;;;0.10;;
69937;SDS011;57248;47.320;15.998;2023-03-14T13:39:52;1.45;;;0.10;;
69937;SDS011;57248;47.320;15.998;2023-03-14T13:42:28;0.93;;;0.10;;
69937;SDS011;57248;47.320;15.998;2023-03-14T13:45:03;0.73;;;0.10;;
69937;SDS011;57248;47.320;15.998;2023-03-14T13:47:35;0.60;;;0.10;;
69937;SDS011;57248;47.320;15.998;2023-03-14T13:50:15;3.40;;;0.15;;
69937;SDS011;57248;47.320;15.998;2023-03-14T13:52:54;3.25;;;0.85;;
69937;SDS011;57248;47.320;15.998;2023-03-14T13:55:28;19.85;;;8.70;;
69937;SDS011;57248;47.320;15.998;2023-03-14T13:58:01;55.07;;;20.03;;
69937;SDS011;57248;47.320;15.998;2023-03-14T14:00:33;36.00;;;14.48;;
69937;SDS011;57248;47.320;15.998;2023-03-14T14:03:08;11.13;;;3.90;;
69937;SDS011;57248;47.320;15.998;2023-03-14T14:05:43;5.40;;;0.55;;
69937;SDS011;57248;47.320;15.998;2023-03-14T14:08:11;2.65;;;0.45;;
69937;SDS011;57248;47.320;15.998;2023-03-14T14:10:45;14.80;;;5.37;;
69937;SDS011;57248;47.320;15.998;2023-03-14T14:13:19;2.42;;;0.40;;
69937;SDS011;57248;47.320;15.998;2023-03-14T14:15:53;26.75;;;9.52;;
69937;SDS011;57248;47.320;15.998;2023-03-14T14:18:26;30.38;;;10.80;;
69937;SDS011;57248;47.320;15.998;2023-03-14T14:21:00;29.38;;;10.02;;
69937;SDS011;57248;47.320;15.998;2023-03-14T14:23:33;15.20;;;5.00;;
69937;SDS011;57248;47.320;15.998;2023-03-14T14:26:07;3.47;;;0.85;;
69937;SDS011;57248;47.320;15.998;2023-03-14T14:28:39;18.85;;;6.20;;
69937;SDS011;57248;47.320;15.998;2023-03-14T14:31:20;4.75;;;1.20;;
69937;SDS011;57248;47.320;15.998;2023-03-14T14:36:47;3.50;;;0.50;;
69937;SDS011;57248;47.320;15.998;2023-03-14T14:39:23;1.60;;;0.20;;
69937;SDS011;57248;47.320;15.998;2023-03-14T14:41:57;2.00;;;0.10;;
69937;SDS011;57248;47.320;15.998;2023-03-14T14:44:32;4.70;;;0.50;;
69937;SDS011;57248;47.320;15.998;2023-03-14T14:47:06;1.23;;;0.30;;
69937;SDS011;57248;47.320;15.998;2023-03-14T14:49:38;1.20;;;0.10;;
69937;SDS011;57248;47.320;15.998;2023-03-14T14:54:53;2.72;;;0.82;;
69937;SDS011;57248;47.320;15.998;2023-03-14T14:57:32;1.58;;;0.30;;
69937;SDS011;57248;47.320;15.998;2023-03-14T15:00:17;2.22;;;0.20;;
69937;SDS011;57248;47.320;15.998;2023-03-14T15:02:52;1.67;;;0.17;;
69937;SDS011;57248;47.320;15.998;2023-03-14T15:05:30;1.10;;;0.10;;
69937;SDS011;57248;47.320;15.998;2023-03-14T15:08:10;2.88;;;0.10;;
69937;SDS011;57248;47.320;15.998;2023-03-14T15:10:43;1.17;;;0.13;;
69937;SDS011;57248;47.320;15.998;2023-03-14T15:13:15;2.63;;;0.40;;
69937;SDS011;57248;47.320;15.998;2023-03-14T15:15:41;3.77;;;0.20;;
69937;SDS011;57248;47.320;15.998;2023-03-14T15:18:14;2.30;;;0.20;;
69937;SDS011;57248;47.320;15.998;2023-03-14T15:20:48;1.93;;;0.10;;
69937;SDS011;57248;47.320;15.998;2023-03-14T15:23:21;1.50;;;0.20;;
69937;SDS011;57248;47.320;15.998;2023-03-14T15:25:54;1.45;;;0.30;;
69937;SDS011;57248;47.320;15.998;2023-03-14T15:28:27;1.88;;;0.13;;
69937;SDS011;57248;47.320;15.998;2023-03-14T15:31:11;8.10;;;3.33;;
69937;SDS011;57248;47.320;15.998;2023-03-14T15:33:51;2.13;;;0.20;;
69937;SDS011;57248;47.320;15.998;2023-03-14T15:36:24;1.83;;;0.10;;
69937;SDS011;57248;47.320;15.998;2023-03-14T15:38:56;2.90;;;0.60;;
69937;SDS011;57248;47.320;15.998;2023-03-14T15:41:23;0.75;;;0.00;;
69937;SDS011;57248;47.320;15.998;2023-03-14T15:43:56;1.67;;;0.10;;
69937;SDS011;57248;47.320;15.998;2023-03-14T15:46:28;0.57;;;0.10;;
69937;SDS011;57248;47.320;15.998;2023-03-14T15:49:01;0.50;;;0.00;;
69937;SDS011;57248;47.320;15.998;2023-03-14T15:51:34;2.95;;;0.05;;
69937;SDS011;57248;47.320;15.998;2023-03-14T15:54:06;1.67;;;0.00;;
69937;SDS011;57248;47.320;15.998;2023-03-14T15:56:38;2.40;;;0.25;;
69937;SDS011;57248;47.320;15.998;2023-03-14T15:59:11;2.10;;;0.20;;
69937;SDS011;57248;47.320;15.998;2023-03-14T16:01:36;2.67;;;0.10;;
69937;SDS011;57248;47.320;15.998;2023-03-14T16:04:09;1.90;;;0.17;;
69937;SDS011;57248;47.320;15.998;2023-03-14T16:06:43;2.78;;;0.30;;
69937;SDS011;57248;47.320;15.998;2023-03-14T16:09:16;2.58;;;0.40;;
69937;SDS011;57248;47.320;15.998;2023-03-14T16:11:48;2.50;;;0.30;;
69937;SDS011;57248;47.320;15.998;2023-03-14T16:14:20;0.90;;;0.10;;
69937;SDS011;57248;47.320;15.998;2023-03-14T16:16:55;0.47;;;0.00;;
69937;SDS011;57248;47.320;15.998;2023-03-14T16:19:30;0.55;;;0.00;;
69937;SDS011;57248;47.320;15.998;2023-03-14T16:22:03;0.20;;;0.00;;
69937;SDS011;57248;47.320;15.998;2023-03-14T16:24:35;0.37;;;0.00;;
69937;SDS011;57248;47.320;15.998;2023-03-14T16:27:07;0.10;;;0.00;;
69937;SDS011;57248;47.320;15.998;2023-03-14T16:29:39;0.30;;;0.00;;
69937;SDS011;57248;47.320;15.998;2023-03-14T16:32:22;0.95;;;0.10;;
69937;SDS011;57248;47.320;15.998;2023-03-14T16:34:54;0.80;;;0.10;;
69937;SDS011;57248;47.320;15.998;2023-03-14T16:37:27;1.73;;;0.10;;
69937;SDS011;57248;47.320;15.998;2023-03-14T16:39:59;1.67;;;0.10;;